createdAt,value
2023-01-30T00:00:23.671Z,90.55
2023-01-30T00:01:23.661Z,90.41
2023-01-30T00:02:23.758Z,90.87
2023-01-30T00:03:23.650Z,90.72
2023-01-30T00:04:23.650Z,90.97
2023-01-30T00:05:23.714Z,91.14
2023-01-30T00:06:23.633Z,90.93
2023-01-30T00:07:23.643Z,91.46
2023-01-30T00:08:23.649Z,92.02
2023-01-30T00:09:23.638Z,91.91
2023-01-30T00:10:25.831Z,92.13
2023-01-30T00:11:23.605Z,92.54
2023-01-30T00:12:23.589Z,92.54
2023-01-30T00:13:23.608Z,92.76
2023-01-30T00:14:23.577Z,92.65
2023-01-30T00:15:23.584Z,92.13
2023-01-30T00:16:23.590Z,92.33
2023-01-30T00:17:23.562Z,92.33
2023-01-30T00:18:23.554Z,92.33
2023-01-30T00:19:23.573Z,91.77
2023-01-30T00:20:23.536Z,92.44
2023-01-30T00:21:23.542Z,91.77
2023-01-30T00:22:23.549Z,91.60
2023-01-30T00:23:23.527Z,92.76
2023-01-30T00:24:23.615Z,92.86
2023-01-30T00:25:23.633Z,92.29
2023-01-30T00:26:23.569Z,92.19
2023-01-30T00:27:23.500Z,92.19
2023-01-30T00:28:23.490Z,92.65
2023-01-30T00:29:23.499Z,93.17
2023-01-30T00:30:23.494Z,92.76
2023-01-30T00:31:23.492Z,92.96
2023-01-30T00:32:23.474Z,93.07
2023-01-30T00:33:23.463Z,92.86
2023-01-30T00:34:23.452Z,92.92
2023-01-30T00:35:23.476Z,92.86
2023-01-30T00:36:23.437Z,92.69
2023-01-30T00:37:23.443Z,93.38
2023-01-30T00:38:23.426Z,93.07
2023-01-30T00:39:23.414Z,92.76
2023-01-30T00:40:23.408Z,92.33
2023-01-30T00:41:23.419Z,92.65
2023-01-30T00:42:23.436Z,92.44
2023-01-30T00:43:23.394Z,92.86
2023-01-30T00:44:23.381Z,93.07
2023-01-30T00:45:23.387Z,92.76
2023-01-30T00:46:23.382Z,92.96
2023-01-30T00:47:23.364Z,92.92
2023-01-30T00:48:23.359Z,92.76
2023-01-30T00:49:23.351Z,92.96
2023-01-30T00:50:23.341Z,92.76
2023-01-30T00:51:23.346Z,92.19
2023-01-30T00:52:23.357Z,92.50
2023-01-30T00:53:23.329Z,91.66
2023-01-30T00:54:23.337Z,91.98
2023-01-30T00:55:23.311Z,92.08
2023-01-30T00:56:23.335Z,92.08
2023-01-30T00:57:23.300Z,92.50
2023-01-30T00:58:23.291Z,92.61
2023-01-30T00:59:23.287Z,93.02
2023-01-30T01:00:23.290Z,92.82
2023-01-30T01:01:23.280Z,92.08
2023-01-30T01:02:23.296Z,92.50
2023-01-30T01:03:23.321Z,92.40
2023-01-30T01:04:23.274Z,92.61
2023-01-30T01:05:23.257Z,92.71
2023-01-30T01:06:23.241Z,92.29
2023-01-30T01:07:23.234Z,92.50
2023-01-30T01:08:23.283Z,92.61
2023-01-30T01:09:23.232Z,92.29
2023-01-30T01:10:23.215Z,92.50
2023-01-30T01:11:23.213Z,92.29
2023-01-30T01:12:23.198Z,92.57
2023-01-30T01:13:23.229Z,92.14
2023-01-30T01:14:23.218Z,92.29
2023-01-30T01:15:23.201Z,91.94
2023-01-30T01:16:23.212Z,91.77
2023-01-30T01:17:23.174Z,91.56
2023-01-30T01:18:23.164Z,91.83
2023-01-30T01:19:23.177Z,92.35
2023-01-30T01:20:23.146Z,92.40
2023-01-30T01:21:23.163Z,92.25
2023-01-30T01:22:23.132Z,92.04
2023-01-30T01:23:23.152Z,91.20
2023-01-30T01:24:23.126Z,91.09
2023-01-30T01:25:23.114Z,91.31
2023-01-30T01:26:23.159Z,90.99
2023-01-30T01:27:23.124Z,91.41
2023-01-30T01:28:23.106Z,91.09
2023-01-30T01:29:23.090Z,91.41
2023-01-30T01:30:23.083Z,91.09
2023-01-30T01:31:23.137Z,91.62
2023-01-30T01:32:23.067Z,91.41
2023-01-30T01:33:23.066Z,91.41
2023-01-30T01:34:23.077Z,91.72
2023-01-30T01:35:23.055Z,91.62
2023-01-30T01:36:53.935Z,91.62
2023-01-30T01:37:24.044Z,91.62
2023-01-30T01:38:23.067Z,91.62
2023-01-30T01:39:23.073Z,92.04
2023-01-30T01:40:23.025Z,91.87
2023-01-30T01:41:23.013Z,92.25
2023-01-30T01:42:23.009Z,91.62
2023-01-30T01:43:23.008Z,91.41
2023-01-30T01:44:22.990Z,92.35
2023-01-30T01:45:23.019Z,91.62
2023-01-30T01:46:22.981Z,91.52
2023-01-30T01:47:23.022Z,91.31
2023-01-30T01:48:22.996Z,91.09
2023-01-30T01:49:22.968Z,90.99
2023-01-30T01:50:22.961Z,91.09
2023-01-30T01:51:22.954Z,91.31
2023-01-30T01:52:22.962Z,90.99
2023-01-30T01:53:22.947Z,91.37
2023-01-30T01:54:22.932Z,90.89
2023-01-30T01:55:22.938Z,91.31
2023-01-30T01:56:22.927Z,91.20
2023-01-30T01:57:22.933Z,90.84
2023-01-30T01:58:22.913Z,90.95
2023-01-30T01:59:22.905Z,90.64
2023-01-30T02:00:22.916Z,90.53
2023-01-30T02:01:23.017Z,90.84
2023-01-30T02:02:22.919Z,90.22
2023-01-30T02:03:22.882Z,90.22
2023-01-30T02:04:22.875Z,90.33
2023-01-30T02:05:22.886Z,90.11
2023-01-30T02:06:22.854Z,90.01
2023-01-30T02:07:22.883Z,90.18
2023-01-30T02:08:22.843Z,89.97
2023-01-30T02:09:22.854Z,90.28
2023-01-30T02:10:22.836Z,90.64
2023-01-30T02:11:22.827Z,90.18
2023-01-30T02:12:22.822Z,90.18
2023-01-30T02:13:22.834Z,90.28
2023-01-30T02:14:22.808Z,90.18
2023-01-30T02:15:22.800Z,90.28
2023-01-30T02:16:22.793Z,90.28
2023-01-30T02:17:22.807Z,90.28
2023-01-30T02:18:22.802Z,90.70
2023-01-30T02:19:22.782Z,90.70
2023-01-30T02:20:22.769Z,90.59
2023-01-30T02:21:22.758Z,90.49
2023-01-30T02:22:22.755Z,90.28
2023-01-30T02:23:22.765Z,90.59
2023-01-30T02:24:22.761Z,90.59
2023-01-30T02:25:22.755Z,90.59
2023-01-30T02:26:22.797Z,91.22
2023-01-30T02:27:22.719Z,90.81
2023-01-30T02:28:22.703Z,90.91
2023-01-30T02:29:22.717Z,90.87
2023-01-30T02:30:22.797Z,91.02
2023-01-30T02:31:22.845Z,90.91
2023-01-30T02:32:22.682Z,90.91
2023-01-30T02:33:22.680Z,91.12
2023-01-30T02:34:22.692Z,91.50
2023-01-30T02:35:22.687Z,91.33
2023-01-30T02:36:22.662Z,91.54
2023-01-30T02:37:22.679Z,91.18
2023-01-30T02:38:22.650Z,91.33
2023-01-30T02:39:22.651Z,91.28
2023-01-30T02:40:22.642Z,92.13
2023-01-30T02:41:22.646Z,91.50
2023-01-30T02:42:22.628Z,92.06
2023-01-30T02:43:22.628Z,92.38
2023-01-30T02:44:22.611Z,91.91
2023-01-30T02:45:22.593Z,91.71
2023-01-30T02:46:22.639Z,91.81
2023-01-30T02:47:22.635Z,91.81
2023-01-30T02:48:22.579Z,92.33
2023-01-30T02:49:22.573Z,92.23
2023-01-30T02:50:22.585Z,92.23
2023-01-30T02:51:22.561Z,91.98
2023-01-30T02:52:22.554Z,92.50
2023-01-30T02:53:22.563Z,92.40
2023-01-30T02:54:22.536Z,92.60
2023-01-30T02:55:22.541Z,92.82
2023-01-30T02:56:22.516Z,92.50
2023-01-30T02:57:22.521Z,93.02
2023-01-30T02:58:22.536Z,92.82
2023-01-30T02:59:22.509Z,92.71
2023-01-30T03:00:22.506Z,92.82
2023-01-30T03:01:22.538Z,92.60
2023-01-30T03:02:22.544Z,93.44
2023-01-30T03:03:22.509Z,93.54
2023-01-30T03:04:22.476Z,93.44
2023-01-30T03:05:22.472Z,93.33
2023-01-30T03:06:22.465Z,93.54
2023-01-30T03:07:22.459Z,92.88
2023-01-30T03:08:22.453Z,93.65
2023-01-30T03:09:22.459Z,93.50
2023-01-30T03:10:22.438Z,93.54
2023-01-30T03:11:22.448Z,93.82
2023-01-30T03:12:22.428Z,93.71
2023-01-30T03:13:22.430Z,94.07
2023-01-30T03:14:22.412Z,94.17
2023-01-30T03:15:22.431Z,94.23
2023-01-30T03:16:22.448Z,94.55
2023-01-30T03:17:22.402Z,95.53
2023-01-30T03:18:22.385Z,95.28
2023-01-30T03:19:22.380Z,95.64
2023-01-30T03:20:22.378Z,96.05
2023-01-30T03:21:22.389Z,96.26
2023-01-30T03:22:22.355Z,96.64
2023-01-30T03:23:22.353Z,96.84
2023-01-30T03:24:22.342Z,96.74
2023-01-30T03:25:22.338Z,96.74
2023-01-30T03:26:22.382Z,96.95
2023-01-30T03:27:22.348Z,97.05
2023-01-30T03:28:22.317Z,96.74
2023-01-30T03:29:22.313Z,96.70
2023-01-30T03:30:22.302Z,96.84
2023-01-30T03:31:22.471Z,96.43
2023-01-30T03:32:22.297Z,96.07
2023-01-30T03:33:22.306Z,96.49
2023-01-30T03:34:22.277Z,96.49
2023-01-30T03:35:22.280Z,96.59
2023-01-30T03:36:22.271Z,96.49
2023-01-30T03:37:22.284Z,96.49
2023-01-30T03:38:22.270Z,97.16
2023-01-30T03:39:22.258Z,96.70
2023-01-30T03:40:22.267Z,97.53
2023-01-30T03:41:22.237Z,96.49
2023-01-30T03:42:22.225Z,96.80
2023-01-30T03:43:22.219Z,97.43
2023-01-30T03:44:22.255Z,97.53
2023-01-30T03:45:22.207Z,97.85
2023-01-30T03:46:22.297Z,97.64
2023-01-30T03:47:22.196Z,97.74
2023-01-30T03:48:22.189Z,97.95
2023-01-30T03:49:22.196Z,98.05
2023-01-30T03:50:22.177Z,97.95
2023-01-30T03:51:22.192Z,97.85
2023-01-30T03:52:22.189Z,97.78
2023-01-30T03:53:22.163Z,97.78
2023-01-30T03:54:22.145Z,97.85
2023-01-30T03:55:22.175Z,98.16
2023-01-30T03:56:22.185Z,97.95
2023-01-30T03:57:22.150Z,97.64
2023-01-30T03:58:22.154Z,97.64
2023-01-30T03:59:22.134Z,97.85
2023-01-30T04:00:22.114Z,97.53
2023-01-30T04:01:22.202Z,97.53
2023-01-30T04:02:22.148Z,97.43
2023-01-30T04:03:22.096Z,97.74
2023-01-30T04:04:22.088Z,97.74
2023-01-30T04:05:22.090Z,97.43
2023-01-30T04:06:22.075Z,97.43
2023-01-30T04:07:22.090Z,97.27
2023-01-30T04:08:22.092Z,97.22
2023-01-30T04:09:22.057Z,97.64
2023-01-30T04:10:22.061Z,97.32
2023-01-30T04:11:22.051Z,97.43
2023-01-30T04:12:22.042Z,97.64
2023-01-30T04:13:22.034Z,97.43
2023-01-30T04:14:22.068Z,97.11
2023-01-30T04:15:22.020Z,97.11
2023-01-30T04:16:22.047Z,97.32
2023-01-30T04:17:22.013Z,97.49
2023-01-30T04:18:22.005Z,97.28
2023-01-30T04:19:21.993Z,97.32
2023-01-30T04:20:22.012Z,97.43
2023-01-30T04:21:21.982Z,97.53
2023-01-30T04:22:21.982Z,97.32
2023-01-30T04:23:21.971Z,97.17
2023-01-30T04:24:21.960Z,97.32
2023-01-30T04:25:21.963Z,97.53
2023-01-30T04:26:29.021Z,97.32
2023-01-30T04:27:21.950Z,97.80
2023-01-30T04:28:21.940Z,97.70
2023-01-30T04:29:21.932Z,97.32
2023-01-30T04:30:21.957Z,97.80
2023-01-30T04:31:21.961Z,97.38
2023-01-30T04:32:21.925Z,97.28
2023-01-30T04:33:21.924Z,97.53
2023-01-30T04:34:21.892Z,97.53
2023-01-30T04:35:21.892Z,97.38
2023-01-30T04:36:21.915Z,97.70
2023-01-30T04:37:21.884Z,97.07
2023-01-30T04:38:21.874Z,97.07
2023-01-30T04:39:22.192Z,97.07
2023-01-30T04:40:21.880Z,96.86
2023-01-30T04:41:21.867Z,96.55
2023-01-30T04:42:21.869Z,96.76
2023-01-30T04:43:21.866Z,96.76
2023-01-30T04:44:21.859Z,96.76
2023-01-30T04:45:21.857Z,96.66
2023-01-30T04:46:21.837Z,96.55
2023-01-30T04:47:21.843Z,96.44
2023-01-30T04:48:21.805Z,96.34
2023-01-30T04:49:21.821Z,96.44
2023-01-30T04:50:21.808Z,96.23
2023-01-30T04:51:21.816Z,96.40
2023-01-30T04:52:21.794Z,96.09
2023-01-30T04:53:21.783Z,96.34
2023-01-30T04:54:21.787Z,96.03
2023-01-30T04:55:21.785Z,96.30
2023-01-30T04:56:21.765Z,96.34
2023-01-30T04:57:21.791Z,96.30
2023-01-30T04:58:21.769Z,96.09
2023-01-30T04:59:21.758Z,95.98
2023-01-30T05:00:21.747Z,95.98
2023-01-30T05:01:21.736Z,95.78
2023-01-30T05:02:23.082Z,96.09
2023-01-30T05:03:21.757Z,95.67
2023-01-30T05:04:21.724Z,95.67
2023-01-30T05:05:21.712Z,95.98
2023-01-30T05:06:21.700Z,95.88
2023-01-30T05:07:21.720Z,95.56
2023-01-30T05:08:21.693Z,95.56
2023-01-30T05:09:21.682Z,95.46
2023-01-30T05:10:21.680Z,95.46
2023-01-30T05:11:21.685Z,95.56
2023-01-30T05:12:21.691Z,95.56
2023-01-30T05:13:21.663Z,95.88
2023-01-30T05:14:21.683Z,95.88
2023-01-30T05:15:21.660Z,95.88
2023-01-30T05:16:21.636Z,95.88
2023-01-30T05:17:21.722Z,95.67
2023-01-30T05:18:21.626Z,95.88
2023-01-30T05:19:21.629Z,95.88
2023-01-30T05:20:21.629Z,95.78
2023-01-30T05:21:21.613Z,95.78
2023-01-30T05:22:21.612Z,95.73
2023-01-30T05:23:21.595Z,95.52
2023-01-30T05:24:21.603Z,95.78
2023-01-30T05:25:21.622Z,95.67
2023-01-30T05:26:21.592Z,95.88
2023-01-30T05:27:21.577Z,95.98
2023-01-30T05:28:21.559Z,95.88
2023-01-30T05:29:21.570Z,95.98
2023-01-30T05:30:21.599Z,96.30
2023-01-30T05:31:21.655Z,96.19
2023-01-30T05:32:21.536Z,96.50
2023-01-30T05:33:21.549Z,96.36
2023-01-30T05:34:21.541Z,96.50
2023-01-30T05:35:21.525Z,96.50
2023-01-30T05:36:21.537Z,96.50
2023-01-30T05:37:21.517Z,96.40
2023-01-30T05:38:21.573Z,96.61
2023-01-30T05:39:21.510Z,96.61
2023-01-30T05:40:21.490Z,96.61
2023-01-30T05:41:21.489Z,96.71
2023-01-30T05:42:21.472Z,96.50
2023-01-30T05:43:21.471Z,97.24
2023-01-30T05:44:21.483Z,97.34
2023-01-30T05:45:21.458Z,97.03
2023-01-30T05:46:21.524Z,97.24
2023-01-30T05:47:21.478Z,97.03
2023-01-30T05:48:21.443Z,96.92
2023-01-30T05:49:21.442Z,96.61
2023-01-30T05:50:21.452Z,96.67
2023-01-30T05:51:21.424Z,97.24
2023-01-30T05:52:21.412Z,97.55
2023-01-30T05:53:21.430Z,96.98
2023-01-30T05:54:21.416Z,97.34
2023-01-30T05:55:21.419Z,96.98
2023-01-30T05:56:21.395Z,97.03
2023-01-30T05:57:21.393Z,96.98
2023-01-30T05:58:21.393Z,97.24
2023-01-30T05:59:21.379Z,96.82
2023-01-30T06:00:21.367Z,96.71
2023-01-30T06:01:21.364Z,96.71
2023-01-30T06:02:21.388Z,97.34
2023-01-30T06:03:21.359Z,96.98
2023-01-30T06:04:21.367Z,97.34
2023-01-30T06:05:21.341Z,97.03
2023-01-30T06:06:21.354Z,97.13
2023-01-30T06:07:21.324Z,97.03
2023-01-30T06:08:21.319Z,97.19
2023-01-30T06:09:21.316Z,97.09
2023-01-30T06:10:21.304Z,96.77
2023-01-30T06:11:21.310Z,96.56
2023-01-30T06:12:21.307Z,96.82
2023-01-30T06:13:21.296Z,96.50
2023-01-30T06:14:21.281Z,96.82
2023-01-30T06:15:21.274Z,96.56
2023-01-30T06:16:21.299Z,97.09
2023-01-30T06:17:21.260Z,96.82
2023-01-30T06:18:21.259Z,96.71
2023-01-30T06:19:21.259Z,97.09
2023-01-30T06:20:21.234Z,96.88
2023-01-30T06:21:21.236Z,97.09
2023-01-30T06:22:21.227Z,96.98
2023-01-30T06:23:21.226Z,96.67
2023-01-30T06:24:21.242Z,96.67
2023-01-30T06:25:21.298Z,96.56
2023-01-30T06:26:21.237Z,96.77
2023-01-30T06:27:21.195Z,96.61
2023-01-30T06:28:21.182Z,96.98
2023-01-30T06:29:21.171Z,97.44
2023-01-30T06:30:21.232Z,96.98
2023-01-30T06:31:21.203Z,97.13
2023-01-30T06:32:21.163Z,96.88
2023-01-30T06:33:21.179Z,96.46
2023-01-30T06:34:21.164Z,96.46
2023-01-30T06:35:21.388Z,96.98
2023-01-30T06:36:21.158Z,99.99
2023-01-30T06:37:21.148Z,97.77
2023-01-30T06:38:21.128Z,93.07
2023-01-30T06:39:21.123Z,88.98
2023-01-30T06:40:21.115Z,86.17
2023-01-30T06:41:21.104Z,83.54
2023-01-30T06:42:21.121Z,81.54
2023-01-30T06:43:21.106Z,82.05
2023-01-30T06:44:21.095Z,80.67
2023-01-30T06:45:21.250Z,79.74
2023-01-30T06:46:21.095Z,79.84
2023-01-30T06:47:21.072Z,78.56
2023-01-30T06:48:21.075Z,78.67
2023-01-30T06:49:21.067Z,78.77
2023-01-30T06:50:21.058Z,77.74
2023-01-30T06:51:21.046Z,78.64
2023-01-30T06:52:21.043Z,80.26
2023-01-30T06:53:21.037Z,81.06
2023-01-30T06:54:21.060Z,82.86
2023-01-30T06:55:21.234Z,84.29
2023-01-30T06:56:21.032Z,85.57
2023-01-30T06:57:21.011Z,86.34
2023-01-30T06:58:21.012Z,87.98
2023-01-30T06:59:20.999Z,88.50
2023-01-30T07:00:21.014Z,89.79
2023-01-30T07:01:20.973Z,90.41
2023-01-30T07:02:20.998Z,90.87
2023-01-30T07:03:20.974Z,91.91
2023-01-30T07:04:21.050Z,92.37
2023-01-30T07:05:20.967Z,93.73
2023-01-30T07:06:20.971Z,94.18
2023-01-30T07:07:20.965Z,94.29
2023-01-30T07:08:22.570Z,95.06
2023-01-30T07:09:20.947Z,95.48
2023-01-30T07:10:20.924Z,95.79
2023-01-30T07:11:20.916Z,96.00
2023-01-30T07:12:20.927Z,96.11
2023-01-30T07:13:20.904Z,96.62
2023-01-30T07:14:20.897Z,96.36
2023-01-30T07:15:21.212Z,96.25
2023-01-30T07:16:20.927Z,96.56
2023-01-30T07:17:20.883Z,96.46
2023-01-30T07:18:20.964Z,96.67
2023-01-30T07:19:20.885Z,96.62
2023-01-30T07:20:20.851Z,96.52
2023-01-30T07:21:20.864Z,96.73
2023-01-30T07:22:20.850Z,97.19
2023-01-30T07:23:20.842Z,96.98
2023-01-30T07:24:20.850Z,97.40
2023-01-30T07:25:21.040Z,97.40
2023-01-30T07:26:20.850Z,97.61
2023-01-30T07:27:20.829Z,97.61
2023-01-30T07:28:20.810Z,97.30
2023-01-30T07:29:20.806Z,98.13
2023-01-30T07:30:20.896Z,97.92
2023-01-30T07:31:20.842Z,97.40
2023-01-30T07:32:20.795Z,97.50
2023-01-30T07:33:20.802Z,97.81
2023-01-30T07:34:20.777Z,97.40
2023-01-30T07:35:21.131Z,97.81
2023-01-30T07:36:20.819Z,97.81
2023-01-30T07:37:20.755Z,97.81
2023-01-30T07:38:20.757Z,97.40
2023-01-30T07:39:20.752Z,97.81
2023-01-30T07:40:20.735Z,97.81
2023-01-30T07:41:20.727Z,97.50
2023-01-30T07:42:20.743Z,97.71
2023-01-30T07:43:20.723Z,97.71
2023-01-30T07:44:20.707Z,98.23
2023-01-30T07:45:20.721Z,97.81
2023-01-30T07:46:20.700Z,98.13
2023-01-30T07:47:20.688Z,97.81
2023-01-30T07:48:20.744Z,98.44
2023-01-30T07:49:20.710Z,98.23
2023-01-30T07:50:20.921Z,98.34
2023-01-30T07:51:20.669Z,98.86
2023-01-30T07:52:20.650Z,98.02
2023-01-30T07:53:20.656Z,98.02
2023-01-30T07:54:20.676Z,98.34
2023-01-30T07:55:20.964Z,98.75
2023-01-30T07:56:20.644Z,98.86
2023-01-30T07:57:20.630Z,98.75
2023-01-30T07:58:20.622Z,98.75
2023-01-30T07:59:20.632Z,98.96
2023-01-30T08:00:20.860Z,98.71
2023-01-30T08:01:20.627Z,98.23
2023-01-30T08:02:20.596Z,98.02
2023-01-30T08:03:20.603Z,97.98
2023-01-30T08:04:20.599Z,98.75
2023-01-30T08:05:20.621Z,98.13
2023-01-30T08:06:20.563Z,98.19
2023-01-30T08:07:20.580Z,98.60
2023-01-30T08:08:20.543Z,98.08
2023-01-30T08:09:20.565Z,98.19
2023-01-30T08:10:21.019Z,98.19
2023-01-30T08:11:20.575Z,98.39
2023-01-30T08:12:20.542Z,97.98
2023-01-30T08:13:20.528Z,98.08
2023-01-30T08:14:20.521Z,98.39
2023-01-30T08:15:22.587Z,98.39
2023-01-30T08:16:20.554Z,98.39
2023-01-30T08:17:20.530Z,97.77
2023-01-30T08:18:20.485Z,97.77
2023-01-30T08:19:20.492Z,97.98
2023-01-30T08:20:20.814Z,98.29
2023-01-30T08:21:20.479Z,97.88
2023-01-30T08:22:20.503Z,97.98
2023-01-30T08:23:20.473Z,98.19
2023-01-30T08:24:20.467Z,97.88
2023-01-30T08:25:20.442Z,97.72
2023-01-30T08:26:20.542Z,97.98
2023-01-30T08:27:20.441Z,98.35
2023-01-30T08:28:20.443Z,98.46
2023-01-30T08:29:20.436Z,98.46
2023-01-30T08:30:20.818Z,98.19
2023-01-30T08:31:20.509Z,98.08
2023-01-30T08:32:20.400Z,98.39
2023-01-30T08:33:20.394Z,98.46
2023-01-30T08:34:20.390Z,98.39
2023-01-30T08:35:20.386Z,98.19
2023-01-30T08:36:20.409Z,98.50
2023-01-30T08:37:20.384Z,97.83
2023-01-30T08:38:20.370Z,98.46
2023-01-30T08:39:20.349Z,98.46
2023-01-30T08:40:20.842Z,98.46
2023-01-30T08:41:20.360Z,98.14
2023-01-30T08:42:20.348Z,97.83
2023-01-30T08:43:20.324Z,97.83
2023-01-30T08:44:20.337Z,97.37
2023-01-30T08:45:20.333Z,97.68
2023-01-30T08:46:20.317Z,97.89
2023-01-30T08:47:20.294Z,97.27
2023-01-30T08:48:20.287Z,97.68
2023-01-30T08:49:20.302Z,97.37
2023-01-30T08:50:20.569Z,97.37
2023-01-30T08:51:20.271Z,97.37
2023-01-30T08:52:20.253Z,97.43
2023-01-30T08:53:20.274Z,97.58
2023-01-30T08:54:20.235Z,97.12
2023-01-30T08:55:20.231Z,97.43
2023-01-30T08:56:20.256Z,97.43
2023-01-30T08:57:20.232Z,96.91
2023-01-30T08:58:20.214Z,97.12
2023-01-30T08:59:20.207Z,96.91
2023-01-30T09:00:20.346Z,97.01
2023-01-30T09:01:20.307Z,97.22
2023-01-30T09:02:20.249Z,97.33
2023-01-30T09:03:20.181Z,97.53
2023-01-30T09:04:20.172Z,97.43
2023-01-30T09:05:20.164Z,97.64
2023-01-30T09:06:20.160Z,97.33
2023-01-30T09:07:20.178Z,97.43
2023-01-30T09:08:20.188Z,97.12
2023-01-30T09:09:20.147Z,97.12
2023-01-30T09:10:20.544Z,97.12
2023-01-30T09:11:20.146Z,97.43
2023-01-30T09:12:20.134Z,97.53
2023-01-30T09:13:20.117Z,97.33
2023-01-30T09:14:20.150Z,97.12
2023-01-30T09:15:20.112Z,97.38
2023-01-30T09:16:20.152Z,97.38
2023-01-30T09:17:20.088Z,97.38
2023-01-30T09:18:20.078Z,97.43
2023-01-30T09:19:20.075Z,97.22
2023-01-30T09:20:20.498Z,97.17
2023-01-30T09:21:20.067Z,96.86
2023-01-30T09:22:20.082Z,96.86
2023-01-30T09:23:20.051Z,96.76
2023-01-30T09:24:20.064Z,96.86
2023-01-30T09:25:20.054Z,96.97
2023-01-30T09:26:20.050Z,96.45
2023-01-30T09:27:20.042Z,96.61
2023-01-30T09:28:20.013Z,96.66
2023-01-30T09:29:20.007Z,96.55
2023-01-30T09:30:20.537Z,96.20
2023-01-30T09:31:20.136Z,96.09
2023-01-30T09:32:20.024Z,96.20
2023-01-30T09:33:19.986Z,96.24
2023-01-30T09:34:20.007Z,96.30
2023-01-30T09:35:20.003Z,96.61
2023-01-30T09:36:19.960Z,96.30
2023-01-30T09:37:19.958Z,96.61
2023-01-30T09:38:19.968Z,96.61
2023-01-30T09:39:19.946Z,95.89
2023-01-30T09:40:20.240Z,96.20
2023-01-30T09:41:19.938Z,96.09
2023-01-30T09:42:19.931Z,96.51
2023-01-30T09:43:19.914Z,96.30
2023-01-30T09:44:19.907Z,96.41
2023-01-30T09:45:19.904Z,96.72
2023-01-30T09:46:19.942Z,97.09
2023-01-30T09:47:19.885Z,96.30
2023-01-30T09:48:19.947Z,96.25
2023-01-30T09:49:19.889Z,96.04
2023-01-30T09:50:20.275Z,95.84
2023-01-30T09:51:19.885Z,96.36
2023-01-30T09:52:19.860Z,96.30
2023-01-30T09:53:19.871Z,96.36
2023-01-30T09:54:19.850Z,96.04
2023-01-30T09:55:19.855Z,96.25
2023-01-30T09:56:19.847Z,96.15
2023-01-30T09:57:21.256Z,95.63
2023-01-30T09:58:19.839Z,95.84
2023-01-30T09:59:19.841Z,95.73
2023-01-30T10:00:20.056Z,95.84
2023-01-30T10:01:21.378Z,95.94
2023-01-30T10:02:19.813Z,95.63
2023-01-30T10:03:19.826Z,95.17
2023-01-30T10:04:19.836Z,94.71
2023-01-30T10:05:19.782Z,94.61
2023-01-30T10:06:19.766Z,94.71
2023-01-30T10:07:19.772Z,94.71
2023-01-30T10:08:19.750Z,94.71
2023-01-30T10:09:19.773Z,94.51
2023-01-30T10:10:20.022Z,94.55
2023-01-30T10:11:19.733Z,94.65
2023-01-30T10:12:19.718Z,94.55
2023-01-30T10:13:19.735Z,94.86
2023-01-30T10:14:19.711Z,95.28
2023-01-30T10:15:19.713Z,95.28
2023-01-30T10:16:19.725Z,94.86
2023-01-30T10:17:19.714Z,94.34
2023-01-30T10:18:19.710Z,94.34
2023-01-30T10:19:33.665Z,94.24
2023-01-30T10:20:19.699Z,94.45
2023-01-30T10:21:19.664Z,94.65
2023-01-30T10:22:19.661Z,94.34
2023-01-30T10:23:19.673Z,94.55
2023-01-30T10:24:19.641Z,94.03
2023-01-30T10:25:19.639Z,94.24
2023-01-30T10:26:19.688Z,94.34
2023-01-30T10:27:19.638Z,94.45
2023-01-30T10:28:19.619Z,94.13
2023-01-30T10:29:19.625Z,94.34
2023-01-30T10:30:19.861Z,94.65
2023-01-30T10:31:19.735Z,94.76
2023-01-30T10:32:19.604Z,94.76
2023-01-30T10:33:19.596Z,94.76
2023-01-30T10:34:19.606Z,94.55
2023-01-30T10:35:19.571Z,94.55
2023-01-30T10:36:19.573Z,94.76
2023-01-30T10:37:19.560Z,94.61
2023-01-30T10:38:19.551Z,94.61
2023-01-30T10:39:19.546Z,94.09
2023-01-30T10:40:19.983Z,94.09
2023-01-30T10:41:19.601Z,93.88
2023-01-30T10:42:19.522Z,93.57
2023-01-30T10:43:19.517Z,93.88
2023-01-30T10:44:19.519Z,93.99
2023-01-30T10:45:19.514Z,93.74
2023-01-30T10:46:19.514Z,93.63
2023-01-30T10:47:21.064Z,93.43
2023-01-30T10:48:19.485Z,93.18
2023-01-30T10:49:19.502Z,92.61
2023-01-30T10:50:19.949Z,92.10
2023-01-30T10:51:19.467Z,92.51
2023-01-30T10:52:19.468Z,91.99
2023-01-30T10:53:19.480Z,91.68
2023-01-30T10:54:20.020Z,91.47
2023-01-30T10:55:31.528Z,90.64
2023-01-30T10:56:20.459Z,90.85
2023-01-30T10:57:19.459Z,91.68
2023-01-30T10:58:19.421Z,90.60
2023-01-30T10:59:19.418Z,91.12
2023-01-30T11:00:19.781Z,90.29
2023-01-30T11:01:19.410Z,90.29
2023-01-30T11:02:19.427Z,89.67
2023-01-30T11:03:19.403Z,90.39
2023-01-30T11:04:19.380Z,90.35
2023-01-30T11:05:19.725Z,89.77
2023-01-30T11:06:19.373Z,89.87
2023-01-30T11:07:19.376Z,89.81
2023-01-30T11:08:19.372Z,90.02
2023-01-30T11:09:19.358Z,90.29
2023-01-30T11:10:19.437Z,89.79
2023-01-30T11:11:19.351Z,86.40
2023-01-30T11:12:19.362Z,86.40
2023-01-30T11:13:19.350Z,85.17
2023-01-30T11:14:19.346Z,79.83
2023-01-30T11:15:19.624Z,80.51
2023-01-30T11:16:19.339Z,75.29
2023-01-30T11:17:19.342Z,75.94
2023-01-30T11:19:22.100Z,72.38
2023-01-30T11:20:19.784Z,70.94
2023-01-30T11:21:19.287Z,71.15
2023-01-30T11:22:19.284Z,69.37
2023-01-30T11:23:20.750Z,70.05
2023-01-30T11:24:19.294Z,68.86
2023-01-30T11:25:19.666Z,70.09
2023-01-30T11:26:19.291Z,66.48
2023-01-30T11:27:19.423Z,66.07
2023-01-30T11:28:19.239Z,65.40
2023-01-30T11:29:19.240Z,65.24
2023-01-30T11:30:19.641Z,68.13
2023-01-30T11:31:25.633Z,70.32
2023-01-30T11:32:20.349Z,73.68
2023-01-30T11:33:19.230Z,75.43
2023-01-30T11:34:19.210Z,76.59
2023-01-30T11:35:19.209Z,77.87
2023-01-30T11:36:19.212Z,78.42
2023-01-30T11:37:19.194Z,80.11
2023-01-30T11:38:19.183Z,79.80
2023-01-30T11:39:19.192Z,81.70
2023-01-30T11:40:19.700Z,81.59
2023-01-30T11:41:19.171Z,82.00
2023-01-30T11:42:19.173Z,81.80
2023-01-30T11:43:19.181Z,82.35
2023-01-30T11:44:19.140Z,82.76
2023-01-30T11:45:19.160Z,83.07
2023-01-30T11:46:19.135Z,81.79
2023-01-30T11:47:19.136Z,79.62
2023-01-30T11:48:33.336Z,80.11
2023-01-30T11:49:44.936Z,81.70
2023-01-30T11:50:27.370Z,82.62
2023-01-30T11:51:19.109Z,83.80
2023-01-30T11:52:19.099Z,84.52
2023-01-30T11:53:19.101Z,84.52
2023-01-30T11:54:19.109Z,84.66
2023-01-30T11:55:19.119Z,84.97
2023-01-30T11:56:19.075Z,85.28
2023-01-30T11:57:19.076Z,85.39
2023-01-30T11:58:19.070Z,85.60
2023-01-30T11:59:19.074Z,85.53
2023-01-30T12:00:19.298Z,86.42
2023-01-30T12:01:19.075Z,86.25
2023-01-30T12:02:19.061Z,86.11
2023-01-30T12:03:19.083Z,85.49
2023-01-30T12:04:19.041Z,85.18
2023-01-30T12:05:19.054Z,85.31
2023-01-30T12:06:19.027Z,84.23
2023-01-30T12:07:19.027Z,83.14
2023-01-30T12:08:24.782Z,84.63
2023-01-30T12:09:20.009Z,85.45
2023-01-30T12:10:19.307Z,85.24
2023-01-30T12:11:19.013Z,85.80
2023-01-30T12:12:18.999Z,85.60
2023-01-30T12:13:18.976Z,85.80
2023-01-30T12:14:18.990Z,86.11
2023-01-30T12:15:18.968Z,86.05
2023-01-30T12:16:19.003Z,86.57
2023-01-30T12:17:18.961Z,86.01
2023-01-30T12:18:18.968Z,87.18
2023-01-30T12:19:18.949Z,86.94
2023-01-30T12:20:19.342Z,87.08
2023-01-30T12:21:18.936Z,87.91
2023-01-30T12:22:18.936Z,87.23
2023-01-30T12:23:18.921Z,86.77
2023-01-30T12:24:18.949Z,87.08
2023-01-30T12:25:18.932Z,87.23
2023-01-30T12:26:18.936Z,87.95
2023-01-30T12:27:18.924Z,88.12
2023-01-30T12:28:18.895Z,87.60
2023-01-30T12:29:18.892Z,87.49
2023-01-30T12:30:19.313Z,87.81
2023-01-30T12:31:18.895Z,87.60
2023-01-30T12:32:18.883Z,87.49
2023-01-30T12:33:18.864Z,86.98
2023-01-30T12:34:18.850Z,86.98
2023-01-30T12:35:19.210Z,86.46
2023-01-30T12:36:18.845Z,86.21
2023-01-30T12:37:18.856Z,86.01
2023-01-30T12:38:18.817Z,85.39
2023-01-30T12:39:18.826Z,84.11
2023-01-30T12:40:18.819Z,82.97
2023-01-30T12:41:18.821Z,83.39
2023-01-30T12:42:20.134Z,83.07
2023-01-30T12:43:18.817Z,82.56
2023-01-30T12:44:18.791Z,83.80
2023-01-30T12:45:19.095Z,83.90
2023-01-30T12:46:18.824Z,84.21
2023-01-30T12:47:18.805Z,84.00
2023-01-30T12:48:18.766Z,84.00
2023-01-30T12:49:18.762Z,83.55
2023-01-30T12:50:18.766Z,83.55
2023-01-30T12:51:18.770Z,84.38
2023-01-30T12:52:18.750Z,84.17
2023-01-30T12:53:18.781Z,84.17